Poplar Corners, Mississippi
Current Conditions -  °F | °C
As of 10:54 AM on Sunday 23 Nov 2014 (Local Time) from KMEM Reporting Station
Light Rain Light Rain  
Wind Chill: 59°   Ceiling: 3000
Heat Index: 59°   Visibility: 2mi
Dew Point: 56°   Wind: 10mph
Humidity: 90%   Direction: 120°ESE
Pressure: 29.57"   Gusts: NA
Location:  34.9578°N, 90.1057°W
Report Text: KMEM 231654Z 12009KT 2SM -RA BR FEW009 BKN030 OVC080 15/13 A2957 RMK AO2 SFC VIS 5 SLP009 P0014 T01500133 $
Loading
Personal Weather Stations






























Interactive Weather Map New forecast layout! Learn more

10-Day Weather Forecast

Advertisements
Track Severe Weather on mobile